sensor_id;sensor_type;location;lat;lon;timestamp;P1;durP1;ratioP1;P2;durP2;ratioP2
3767;SDS011;1899;49.966;7.106;2023-02-11T05:02:36;55.72;;;34.97;;
3767;SDS011;1899;49.966;7.106;2023-02-11T05:05:02;50.60;;;34.88;;
3767;SDS011;1899;49.966;7.106;2023-02-11T05:07:27;48.92;;;34.25;;
3767;SDS011;1899;49.966;7.106;2023-02-11T05:09:53;45.37;;;32.13;;
3767;SDS011;1899;49.966;7.106;2023-02-11T05:12:18;54.60;;;34.55;;
3767;SDS011;1899;49.966;7.106;2023-02-11T05:14:43;51.40;;;34.33;;
3767;SDS011;1899;49.966;7.106;2023-02-11T05:17:08;46.40;;;33.33;;
3767;SDS011;1899;49.966;7.106;2023-02-11T05:19:34;52.90;;;34.27;;
3767;SDS011;1899;49.966;7.106;2023-02-11T05:21:59;47.00;;;31.73;;
3767;SDS011;1899;49.966;7.106;2023-02-11T05:24:24;49.80;;;33.27;;
3767;SDS011;1899;49.966;7.106;2023-02-11T05:26:49;47.30;;;33.00;;
3767;SDS011;1899;49.966;7.106;2023-02-11T05:29:15;48.67;;;34.10;;
3767;SDS011;1899;49.966;7.106;2023-02-11T05:31:40;48.97;;;33.43;;
3767;SDS011;1899;49.966;7.106;2023-02-11T05:34:05;52.63;;;34.53;;
3767;SDS011;1899;49.966;7.106;2023-02-11T05:36:30;48.33;;;33.43;;
3767;SDS011;1899;49.966;7.106;2023-02-11T05:38:56;49.63;;;33.43;;
3767;SDS011;1899;49.966;7.106;2023-02-11T05:41:21;52.10;;;34.97;;
3767;SDS011;1899;49.966;7.106;2023-02-11T05:43:47;49.07;;;33.57;;
3767;SDS011;1899;49.966;7.106;2023-02-11T05:46:13;47.42;;;33.08;;
3767;SDS011;1899;49.966;7.106;2023-02-11T05:48:39;46.90;;;33.17;;
3767;SDS011;1899;49.966;7.106;2023-02-11T05:51:04;47.67;;;31.50;;
3767;SDS011;1899;49.966;7.106;2023-02-11T05:53:29;53.27;;;34.77;;
3767;SDS011;1899;49.966;7.106;2023-02-11T05:55:54;43.40;;;30.13;;
3767;SDS011;1899;49.966;7.106;2023-02-11T05:58:20;47.40;;;32.23;;
3767;SDS011;1899;49.966;7.106;2023-02-11T06:00:45;49.60;;;33.63;;
3767;SDS011;1899;49.966;7.106;2023-02-11T06:03:10;42.80;;;30.90;;
3767;SDS011;1899;49.966;7.106;2023-02-11T06:05:35;46.10;;;31.50;;
3767;SDS011;1899;49.966;7.106;2023-02-11T06:08:00;46.57;;;31.33;;
3767;SDS011;1899;49.966;7.106;2023-02-11T06:10:26;48.53;;;30.97;;
3767;SDS011;1899;49.966;7.106;2023-02-11T06:12:51;45.67;;;30.30;;
3767;SDS011;1899;49.966;7.106;2023-02-11T06:15:16;45.90;;;30.10;;
3767;SDS011;1899;49.966;7.106;2023-02-11T06:17:42;46.10;;;31.60;;
3767;SDS011;1899;49.966;7.106;2023-02-11T06:20:07;41.92;;;28.52;;
3767;SDS011;1899;49.966;7.106;2023-02-11T06:22:34;43.17;;;29.27;;
3767;SDS011;1899;49.966;7.106;2023-02-11T06:24:59;41.53;;;29.40;;
3767;SDS011;1899;49.966;7.106;2023-02-11T06:27:24;44.45;;;30.35;;
3767;SDS011;1899;49.966;7.106;2023-02-11T06:29:49;45.17;;;31.90;;
3767;SDS011;1899;49.966;7.106;2023-02-11T06:32:16;45.10;;;30.52;;
3767;SDS011;1899;49.966;7.106;2023-02-11T06:34:42;49.40;;;31.90;;
3767;SDS011;1899;49.966;7.106;2023-02-11T06:37:07;45.57;;;31.07;;
3767;SDS011;1899;49.966;7.106;2023-02-11T06:39:32;41.50;;;30.30;;
3767;SDS011;1899;49.966;7.106;2023-02-11T06:41:57;42.73;;;30.50;;
3767;SDS011;1899;49.966;7.106;2023-02-11T06:44:22;48.10;;;32.70;;
3767;SDS011;1899;49.966;7.106;2023-02-11T06:46:48;44.27;;;29.70;;
3767;SDS011;1899;49.966;7.106;2023-02-11T06:49:13;43.73;;;31.13;;
3767;SDS011;1899;49.966;7.106;2023-02-11T06:51:38;43.00;;;31.57;;
3767;SDS011;1899;49.966;7.106;2023-02-11T06:54:04;42.88;;;28.83;;
3767;SDS011;1899;49.966;7.106;2023-02-11T06:56:30;47.10;;;33.23;;
3767;SDS011;1899;49.966;7.106;2023-02-11T06:58:55;48.17;;;33.20;;
3767;SDS011;1899;49.966;7.106;2023-02-11T07:01:21;48.23;;;34.17;;
3767;SDS011;1899;49.966;7.106;2023-02-11T07:03:46;43.47;;;29.48;;
3767;SDS011;1899;49.966;7.106;2023-02-11T07:06:13;42.77;;;29.60;;
3767;SDS011;1899;49.966;7.106;2023-02-11T07:08:39;44.10;;;30.45;;
3767;SDS011;1899;49.966;7.106;2023-02-11T07:11:10;41.42;;;28.00;;
3767;SDS011;1899;49.966;7.106;2023-02-11T07:13:35;42.97;;;29.23;;
3767;SDS011;1899;49.966;7.106;2023-02-11T07:16:03;40.73;;;30.33;;
3767;SDS011;1899;49.966;7.106;2023-02-11T07:18:28;45.38;;;30.73;;
3767;SDS011;1899;49.966;7.106;2023-02-11T07:20:53;44.40;;;29.63;;
3767;SDS011;1899;49.966;7.106;2023-02-11T07:23:19;40.93;;;29.63;;
3767;SDS011;1899;49.966;7.106;2023-02-11T07:25:44;43.23;;;29.30;;
3767;SDS011;1899;49.966;7.106;2023-02-11T07:28:10;42.10;;;28.50;;
3767;SDS011;1899;49.966;7.106;2023-02-11T07:30:35;41.33;;;29.67;;
3767;SDS011;1899;49.966;7.106;2023-02-11T07:33:00;43.00;;;29.90;;
3767;SDS011;1899;49.966;7.106;2023-02-11T07:35:26;45.10;;;29.90;;
3767;SDS011;1899;49.966;7.106;2023-02-11T07:37:51;43.85;;;29.77;;
3767;SDS011;1899;49.966;7.106;2023-02-11T07:40:16;39.97;;;27.70;;
3767;SDS011;1899;49.966;7.106;2023-02-11T07:42:41;44.33;;;29.90;;
3767;SDS011;1899;49.966;7.106;2023-02-11T07:45:07;40.30;;;28.13;;
3767;SDS011;1899;49.966;7.106;2023-02-11T07:47:33;44.90;;;31.07;;
3767;SDS011;1899;49.966;7.106;2023-02-11T07:49:58;42.80;;;29.57;;
3767;SDS011;1899;49.966;7.106;2023-02-11T07:52:23;40.67;;;29.60;;
3767;SDS011;1899;49.966;7.106;2023-02-11T07:54:49;42.87;;;29.90;;
3767;SDS011;1899;49.966;7.106;2023-02-11T07:57:14;42.70;;;29.77;;
3767;SDS011;1899;49.966;7.106;2023-02-11T07:59:39;38.60;;;26.63;;
3767;SDS011;1899;49.966;7.106;2023-02-11T08:02:04;39.77;;;27.77;;
3767;SDS011;1899;49.966;7.106;2023-02-11T08:04:29;42.13;;;29.97;;
3767;SDS011;1899;49.966;7.106;2023-02-11T08:06:55;39.85;;;28.27;;
3767;SDS011;1899;49.966;7.106;2023-02-11T08:09:21;43.35;;;29.52;;
3767;SDS011;1899;49.966;7.106;2023-02-11T08:11:46;42.73;;;28.50;;
3767;SDS011;1899;49.966;7.106;2023-02-11T08:14:12;42.00;;;27.67;;
3767;SDS011;1899;49.966;7.106;2023-02-11T08:16:37;39.15;;;28.55;;
3767;SDS011;1899;49.966;7.106;2023-02-11T08:19:14;37.40;;;26.80;;
3767;SDS011;1899;49.966;7.106;2023-02-11T08:21:40;39.33;;;28.23;;
3767;SDS011;1899;49.966;7.106;2023-02-11T08:24:05;36.97;;;25.50;;
3767;SDS011;1899;49.966;7.106;2023-02-11T08:26:31;39.83;;;26.83;;
3767;SDS011;1899;49.966;7.106;2023-02-11T08:28:58;43.08;;;28.67;;
3767;SDS011;1899;49.966;7.106;2023-02-11T08:31:28;37.90;;;26.45;;
3767;SDS011;1899;49.966;7.106;2023-02-11T08:33:54;38.63;;;27.25;;
3767;SDS011;1899;49.966;7.106;2023-02-11T08:36:23;38.00;;;25.80;;
3767;SDS011;1899;49.966;7.106;2023-02-11T08:38:49;36.60;;;26.40;;
3767;SDS011;1899;49.966;7.106;2023-02-11T08:41:14;41.57;;;27.90;;
3767;SDS011;1899;49.966;7.106;2023-02-11T08:43:40;41.60;;;27.20;;
3767;SDS011;1899;49.966;7.106;2023-02-11T08:46:06;39.07;;;25.33;;
3767;SDS011;1899;49.966;7.106;2023-02-11T08:48:31;35.53;;;25.40;;
3767;SDS011;1899;49.966;7.106;2023-02-11T08:50:57;36.67;;;26.10;;
3767;SDS011;1899;49.966;7.106;2023-02-11T08:53:22;38.50;;;26.63;;
3767;SDS011;1899;49.966;7.106;2023-02-11T08:55:48;41.97;;;26.60;;
3767;SDS011;1899;49.966;7.106;2023-02-11T08:58:14;39.10;;;27.48;;
3767;SDS011;1899;49.966;7.106;2023-02-11T09:00:39;35.27;;;24.80;;
3767;SDS011;1899;49.966;7.106;2023-02-11T09:03:04;34.90;;;23.80;;
3767;SDS011;1899;49.966;7.106;2023-02-11T09:05:29;37.50;;;24.87;;
3767;SDS011;1899;49.966;7.106;2023-02-11T09:07:55;37.60;;;24.50;;
3767;SDS011;1899;49.966;7.106;2023-02-11T09:10:20;36.22;;;26.17;;
3767;SDS011;1899;49.966;7.106;2023-02-11T09:12:45;36.57;;;25.97;;
3767;SDS011;1899;49.966;7.106;2023-02-11T09:15:10;38.30;;;24.70;;
3767;SDS011;1899;49.966;7.106;2023-02-11T09:17:36;35.17;;;24.90;;
3767;SDS011;1899;49.966;7.106;2023-02-11T09:20:01;34.13;;;23.93;;
3767;SDS011;1899;49.966;7.106;2023-02-11T09:22:27;33.75;;;23.50;;
3767;SDS011;1899;49.966;7.106;2023-02-11T09:24:52;34.70;;;23.47;;
3767;SDS011;1899;49.966;7.106;2023-02-11T09:27:17;33.60;;;23.30;;
3767;SDS011;1899;49.966;7.106;2023-02-11T09:29:43;34.87;;;22.93;;
3767;SDS011;1899;49.966;7.106;2023-02-11T09:32:08;33.70;;;23.73;;
3767;SDS011;1899;49.966;7.106;2023-02-11T09:34:33;37.05;;;25.40;;
3767;SDS011;1899;49.966;7.106;2023-02-11T09:36:58;33.07;;;22.77;;
3767;SDS011;1899;49.966;7.106;2023-02-11T09:39:24;30.77;;;21.43;;
3767;SDS011;1899;49.966;7.106;2023-02-11T09:44:28;30.67;;;20.92;;
3767;SDS011;1899;49.966;7.106;2023-02-11T09:49:31;33.17;;;22.03;;
3767;SDS011;1899;49.966;7.106;2023-02-11T09:52:12;29.15;;;19.88;;
3767;SDS011;1899;49.966;7.106;2023-02-11T09:54:58;29.10;;;21.50;;
3767;SDS011;1899;49.966;7.106;2023-02-11T09:57:33;29.88;;;20.88;;
3767;SDS011;1899;49.966;7.106;2023-02-11T09:59:59;31.02;;;21.40;;
3767;SDS011;1899;49.966;7.106;2023-02-11T10:02:43;29.67;;;21.20;;
3767;SDS011;1899;49.966;7.106;2023-02-11T10:08:02;27.38;;;19.40;;
3767;SDS011;1899;49.966;7.106;2023-02-11T10:11:38;27.27;;;20.08;;
3767;SDS011;1899;49.966;7.106;2023-02-11T10:13:34;29.88;;;20.90;;
3767;SDS011;1899;49.966;7.106;2023-02-11T10:23:28;30.10;;;21.00;;
3767;SDS011;1899;49.966;7.106;2023-02-11T10:25:55;32.50;;;21.25;;
3767;SDS011;1899;49.966;7.106;2023-02-11T10:28:43;27.45;;;19.30;;
3767;SDS011;1899;49.966;7.106;2023-02-11T10:31:08;26.23;;;19.50;;
3767;SDS011;1899;49.966;7.106;2023-02-11T10:36:00;29.07;;;18.97;;
3767;SDS011;1899;49.966;7.106;2023-02-11T10:38:26;28.10;;;20.27;;
3767;SDS011;1899;49.966;7.106;2023-02-11T10:40:51;26.83;;;20.03;;
3767;SDS011;1899;49.966;7.106;2023-02-11T10:43:18;29.90;;;20.83;;
3767;SDS011;1899;49.966;7.106;2023-02-11T10:45:48;30.20;;;19.65;;
3767;SDS011;1899;49.966;7.106;2023-02-11T10:53:32;28.23;;;19.92;;
3767;SDS011;1899;49.966;7.106;2023-02-11T10:55:59;27.13;;;18.75;;
3767;SDS011;1899;49.966;7.106;2023-02-11T10:58:27;26.57;;;18.60;;
3767;SDS011;1899;49.966;7.106;2023-02-11T11:00:53;28.67;;;19.52;;
3767;SDS011;1899;49.966;7.106;2023-02-11T11:03:20;28.38;;;19.27;;
3767;SDS011;1899;49.966;7.106;2023-02-11T11:08:11;28.10;;;19.00;;
3767;SDS011;1899;49.966;7.106;2023-02-11T11:10:44;30.00;;;19.98;;
3767;SDS011;1899;49.966;7.106;2023-02-11T11:15:48;30.45;;;19.08;;
3767;SDS011;1899;49.966;7.106;2023-02-11T11:18:30;25.30;;;18.80;;
3767;SDS011;1899;49.966;7.106;2023-02-11T11:20:57;26.90;;;17.67;;
3767;SDS011;1899;49.966;7.106;2023-02-11T11:23:23;25.40;;;16.98;;
3767;SDS011;1899;49.966;7.106;2023-02-11T11:26:05;26.02;;;17.52;;
3767;SDS011;1899;49.966;7.106;2023-02-11T11:29:14;25.10;;;18.60;;
3767;SDS011;1899;49.966;7.106;2023-02-11T11:31:21;26.20;;;18.20;;
3767;SDS011;1899;49.966;7.106;2023-02-11T11:33:48;23.60;;;16.40;;
3767;SDS011;1899;49.966;7.106;2023-02-11T11:36:22;24.25;;;16.27;;
3767;SDS011;1899;49.966;7.106;2023-02-11T11:38:49;26.63;;;17.43;;
3767;SDS011;1899;49.966;7.106;2023-02-11T11:41:33;26.95;;;17.40;;
3767;SDS011;1899;49.966;7.106;2023-02-11T11:46:43;25.45;;;18.42;;
3767;SDS011;1899;49.966;7.106;2023-02-11T11:49:14;25.40;;;17.40;;
3767;SDS011;1899;49.966;7.106;2023-02-11T11:51:42;27.60;;;18.13;;
3767;SDS011;1899;49.966;7.106;2023-02-11T11:54:12;24.75;;;17.45;;
3767;SDS011;1899;49.966;7.106;2023-02-11T11:57:01;23.08;;;16.70;;
3767;SDS011;1899;49.966;7.106;2023-02-11T11:59:25;25.25;;;17.45;;
3767;SDS011;1899;49.966;7.106;2023-02-11T12:15:07;27.85;;;17.83;;
3767;SDS011;1899;49.966;7.106;2023-02-11T12:18:20;26.77;;;17.23;;
3767;SDS011;1899;49.966;7.106;2023-02-11T12:25:45;25.65;;;16.70;;
3767;SDS011;1899;49.966;7.106;2023-02-11T12:30:53;25.38;;;17.48;;
3767;SDS011;1899;49.966;7.106;2023-02-11T12:38:37;23.67;;;17.50;;
3767;SDS011;1899;49.966;7.106;2023-02-11T12:41:12;27.37;;;18.20;;
3767;SDS011;1899;49.966;7.106;2023-02-11T12:43:41;24.70;;;16.83;;
3767;SDS011;1899;49.966;7.106;2023-02-11T12:46:28;26.48;;;17.75;;
3767;SDS011;1899;49.966;7.106;2023-02-11T12:58:53;23.05;;;16.33;;
3767;SDS011;1899;49.966;7.106;2023-02-11T13:01:21;27.83;;;17.60;;
3767;SDS011;1899;49.966;7.106;2023-02-11T13:03:56;21.63;;;15.77;;
3767;SDS011;1899;49.966;7.106;2023-02-11T13:06:26;25.35;;;17.23;;
3767;SDS011;1899;49.966;7.106;2023-02-11T13:08:54;21.67;;;16.20;;
3767;SDS011;1899;49.966;7.106;2023-02-11T13:11:33;26.35;;;17.55;;
3767;SDS011;1899;49.966;7.106;2023-02-11T13:14:03;26.92;;;18.85;;
3767;SDS011;1899;49.966;7.106;2023-02-11T13:24:58;25.70;;;17.75;;
3767;SDS011;1899;49.966;7.106;2023-02-11T13:37:56;27.92;;;17.60;;
3767;SDS011;1899;49.966;7.106;2023-02-11T13:40:22;25.73;;;17.05;;
3767;SDS011;1899;49.966;7.106;2023-02-11T13:42:50;23.92;;;16.92;;
3767;SDS011;1899;49.966;7.106;2023-02-11T13:45:17;26.38;;;16.85;;
3767;SDS011;1899;49.966;7.106;2023-02-11T13:47:42;28.33;;;18.55;;
3767;SDS011;1899;49.966;7.106;2023-02-11T13:50:19;23.33;;;16.60;;
3767;SDS011;1899;49.966;7.106;2023-02-11T13:52:45;25.23;;;17.70;;
3767;SDS011;1899;49.966;7.106;2023-02-11T13:57:37;26.37;;;16.90;;
3767;SDS011;1899;49.966;7.106;2023-02-11T14:00:46;25.35;;;17.00;;
3767;SDS011;1899;49.966;7.106;2023-02-11T14:19:29;20.98;;;15.27;;
3767;SDS011;1899;49.966;7.106;2023-02-11T14:22:00;20.08;;;14.73;;
3767;SDS011;1899;49.966;7.106;2023-02-11T14:27:04;22.53;;;15.07;;
3767;SDS011;1899;49.966;7.106;2023-02-11T14:42:20;23.23;;;15.70;;
3767;SDS011;1899;49.966;7.106;2023-02-11T14:44:49;22.23;;;15.93;;
3767;SDS011;1899;49.966;7.106;2023-02-11T14:47:17;20.95;;;14.40;;
3767;SDS011;1899;49.966;7.106;2023-02-11T14:49:43;19.83;;;13.32;;
3767;SDS011;1899;49.966;7.106;2023-02-11T14:57:28;20.23;;;13.67;;
3767;SDS011;1899;49.966;7.106;2023-02-11T14:59:56;23.75;;;16.33;;
3767;SDS011;1899;49.966;7.106;2023-02-11T15:02:33;20.80;;;15.45;;
3767;SDS011;1899;49.966;7.106;2023-02-11T15:07:44;20.77;;;14.90;;
3767;SDS011;1899;49.966;7.106;2023-02-11T15:10:14;22.08;;;15.38;;
3767;SDS011;1899;49.966;7.106;2023-02-11T15:12:39;19.00;;;13.77;;
3767;SDS011;1899;49.966;7.106;2023-02-11T15:15:11;21.63;;;14.90;;
3767;SDS011;1899;49.966;7.106;2023-02-11T15:17:36;22.98;;;15.50;;
3767;SDS011;1899;49.966;7.106;2023-02-11T15:20:02;26.67;;;16.20;;
3767;SDS011;1899;49.966;7.106;2023-02-11T15:22:28;23.47;;;16.50;;
3767;SDS011;1899;49.966;7.106;2023-02-11T15:24:58;24.95;;;17.35;;
3767;SDS011;1899;49.966;7.106;2023-02-11T15:27:23;25.53;;;17.87;;
3767;SDS011;1899;49.966;7.106;2023-02-11T15:29:49;28.80;;;20.05;;
3767;SDS011;1899;49.966;7.106;2023-02-11T15:32:16;26.63;;;18.10;;
3767;SDS011;1899;49.966;7.106;2023-02-11T15:34:42;28.13;;;19.27;;
3767;SDS011;1899;49.966;7.106;2023-02-11T15:37:21;28.27;;;19.20;;
3767;SDS011;1899;49.966;7.106;2023-02-11T15:39:47;31.05;;;20.23;;
3767;SDS011;1899;49.966;7.106;2023-02-11T15:42:28;30.33;;;20.70;;
3767;SDS011;1899;49.966;7.106;2023-02-11T15:48:01;32.15;;;22.30;;
3767;SDS011;1899;49.966;7.106;2023-02-11T15:50:31;33.58;;;21.92;;
3767;SDS011;1899;49.966;7.106;2023-02-11T15:52:59;31.70;;;20.65;;
3767;SDS011;1899;49.966;7.106;2023-02-11T15:55:24;32.70;;;21.27;;
3767;SDS011;1899;49.966;7.106;2023-02-11T15:57:52;29.95;;;20.25;;
3767;SDS011;1899;49.966;7.106;2023-02-11T16:00:19;32.25;;;21.60;;
3767;SDS011;1899;49.966;7.106;2023-02-11T16:02:45;33.10;;;22.52;;
3767;SDS011;1899;49.966;7.106;2023-02-11T16:07:50;31.53;;;21.57;;
3767;SDS011;1899;49.966;7.106;2023-02-11T16:10:31;30.77;;;21.47;;
3767;SDS011;1899;49.966;7.106;2023-02-11T16:18:12;33.83;;;23.10;;
3767;SDS011;1899;49.966;7.106;2023-02-11T16:20:38;31.90;;;22.00;;
3767;SDS011;1899;49.966;7.106;2023-02-11T16:23:04;30.60;;;21.37;;
3767;SDS011;1899;49.966;7.106;2023-02-11T16:25:30;33.05;;;22.23;;
3767;SDS011;1899;49.966;7.106;2023-02-11T16:27:55;33.50;;;24.33;;
3767;SDS011;1899;49.966;7.106;2023-02-11T16:30:32;37.40;;;24.63;;
3767;SDS011;1899;49.966;7.106;2023-02-11T16:32:57;33.65;;;22.88;;
3767;SDS011;1899;49.966;7.106;2023-02-11T16:35:22;37.30;;;24.45;;
3767;SDS011;1899;49.966;7.106;2023-02-11T16:37:48;37.17;;;23.90;;
3767;SDS011;1899;49.966;7.106;2023-02-11T16:40:13;39.20;;;25.53;;
3767;SDS011;1899;49.966;7.106;2023-02-11T16:42:38;38.40;;;25.40;;
3767;SDS011;1899;49.966;7.106;2023-02-11T16:45:04;33.33;;;23.02;;
3767;SDS011;1899;49.966;7.106;2023-02-11T16:47:29;37.42;;;25.13;;
3767;SDS011;1899;49.966;7.106;2023-02-11T16:49:55;35.28;;;23.92;;
3767;SDS011;1899;49.966;7.106;2023-02-11T16:52:21;40.53;;;24.98;;
3767;SDS011;1899;49.966;7.106;2023-02-11T16:54:46;37.08;;;24.85;;
3767;SDS011;1899;49.966;7.106;2023-02-11T16:57:16;39.97;;;25.47;;
3767;SDS011;1899;49.966;7.106;2023-02-11T16:59:41;36.88;;;25.85;;
3767;SDS011;1899;49.966;7.106;2023-02-11T17:02:14;38.05;;;25.67;;
3767;SDS011;1899;49.966;7.106;2023-02-11T17:04:40;40.38;;;26.20;;
3767;SDS011;1899;49.966;7.106;2023-02-11T17:07:06;39.33;;;25.67;;
3767;SDS011;1899;49.966;7.106;2023-02-11T17:09:31;39.63;;;26.47;;
3767;SDS011;1899;49.966;7.106;2023-02-11T17:11:57;40.53;;;26.17;;
3767;SDS011;1899;49.966;7.106;2023-02-11T17:14:22;38.30;;;25.70;;
3767;SDS011;1899;49.966;7.106;2023-02-11T17:16:47;38.17;;;25.60;;
3767;SDS011;1899;49.966;7.106;2023-02-11T17:19:13;39.23;;;25.80;;
3767;SDS011;1899;49.966;7.106;2023-02-11T17:21:39;35.10;;;23.25;;
3767;SDS011;1899;49.966;7.106;2023-02-11T17:24:05;38.75;;;25.67;;
3767;SDS011;1899;49.966;7.106;2023-02-11T17:26:30;35.73;;;25.03;;
3767;SDS011;1899;49.966;7.106;2023-02-11T17:28:55;34.13;;;23.10;;
3767;SDS011;1899;49.966;7.106;2023-02-11T17:31:21;35.00;;;23.00;;
3767;SDS011;1899;49.966;7.106;2023-02-11T17:33:47;33.70;;;22.58;;
3767;SDS011;1899;49.966;7.106;2023-02-11T17:36:12;39.20;;;25.70;;
3767;SDS011;1899;49.966;7.106;2023-02-11T17:38:37;38.40;;;24.00;;
3767;SDS011;1899;49.966;7.106;2023-02-11T17:41:03;35.33;;;23.02;;
3767;SDS011;1899;49.966;7.106;2023-02-11T17:43:29;38.55;;;24.15;;
3767;SDS011;1899;49.966;7.106;2023-02-11T17:45:54;37.73;;;24.87;;
3767;SDS011;1899;49.966;7.106;2023-02-11T17:48:20;39.93;;;25.70;;
3767;SDS011;1899;49.966;7.106;2023-02-11T17:50:45;37.63;;;24.30;;
3767;SDS011;1899;49.966;7.106;2023-02-11T17:53:10;40.67;;;23.73;;
3767;SDS011;1899;49.966;7.106;2023-02-11T17:55:36;37.72;;;25.10;;
3767;SDS011;1899;49.966;7.106;2023-02-11T17:58:02;41.33;;;26.67;;
3767;SDS011;1899;49.966;7.106;2023-02-11T18:00:27;41.83;;;26.30;;
3767;SDS011;1899;49.966;7.106;2023-02-11T18:02:53;41.03;;;26.60;;
3767;SDS011;1899;49.966;7.106;2023-02-11T18:05:18;36.03;;;24.77;;
3767;SDS011;1899;49.966;7.106;2023-02-11T18:07:44;36.43;;;24.60;;
3767;SDS011;1899;49.966;7.106;2023-02-11T18:10:09;41.50;;;28.27;;
3767;SDS011;1899;49.966;7.106;2023-02-11T18:12:35;43.13;;;27.57;;
3767;SDS011;1899;49.966;7.106;2023-02-11T18:15:00;42.70;;;26.90;;
3767;SDS011;1899;49.966;7.106;2023-02-11T18:17:25;37.57;;;25.43;;
3767;SDS011;1899;49.966;7.106;2023-02-11T18:19:53;37.33;;;24.67;;
3767;SDS011;1899;49.966;7.106;2023-02-11T18:22:18;43.42;;;25.33;;
3767;SDS011;1899;49.966;7.106;2023-02-11T18:24:44;34.63;;;22.83;;
3767;SDS011;1899;49.966;7.106;2023-02-11T18:27:09;36.17;;;24.00;;
3767;SDS011;1899;49.966;7.106;2023-02-11T18:29:34;36.47;;;24.47;;
3767;SDS011;1899;49.966;7.106;2023-02-11T18:31:59;39.40;;;25.00;;
3767;SDS011;1899;49.966;7.106;2023-02-11T18:34:25;44.40;;;26.73;;
3767;SDS011;1899;49.966;7.106;2023-02-11T18:36:50;42.08;;;25.48;;
3767;SDS011;1899;49.966;7.106;2023-02-11T18:39:16;37.78;;;26.42;;
3767;SDS011;1899;49.966;7.106;2023-02-11T18:41:43;38.97;;;25.90;;
3767;SDS011;1899;49.966;7.106;2023-02-11T18:44:09;38.47;;;25.33;;
3767;SDS011;1899;49.966;7.106;2023-02-11T18:46:35;38.55;;;24.50;;
3767;SDS011;1899;49.966;7.106;2023-02-11T18:49:00;38.00;;;24.63;;
3767;SDS011;1899;49.966;7.106;2023-02-11T18:51:25;33.67;;;23.27;;
3767;SDS011;1899;49.966;7.106;2023-02-11T18:53:50;38.37;;;25.30;;
3767;SDS011;1899;49.966;7.106;2023-02-11T18:56:17;36.60;;;24.50;;
3767;SDS011;1899;49.966;7.106;2023-02-11T18:58:42;38.65;;;25.98;;
3767;SDS011;1899;49.966;7.106;2023-02-11T19:01:12;39.50;;;25.60;;
3767;SDS011;1899;49.966;7.106;2023-02-11T19:03:37;39.78;;;26.30;;
3767;SDS011;1899;49.966;7.106;2023-02-11T19:06:03;37.40;;;25.47;;
3767;SDS011;1899;49.966;7.106;2023-02-11T19:08:28;33.57;;;23.50;;
3767;SDS011;1899;49.966;7.106;2023-02-11T19:10:53;36.47;;;24.93;;
3767;SDS011;1899;49.966;7.106;2023-02-11T19:13:19;37.90;;;25.20;;
3767;SDS011;1899;49.966;7.106;2023-02-11T19:15:44;40.97;;;26.03;;
3767;SDS011;1899;49.966;7.106;2023-02-11T19:18:10;35.00;;;23.90;;
3767;SDS011;1899;49.966;7.106;2023-02-11T19:20:37;37.27;;;24.10;;
3767;SDS011;1899;49.966;7.106;2023-02-11T19:23:03;37.30;;;24.60;;
3767;SDS011;1899;49.966;7.106;2023-02-11T19:25:28;40.30;;;26.30;;
3767;SDS011;1899;49.966;7.106;2023-02-11T19:27:53;38.07;;;25.00;;
3767;SDS011;1899;49.966;7.106;2023-02-11T19:30:18;40.80;;;25.13;;
3767;SDS011;1899;49.966;7.106;2023-02-11T19:32:44;38.03;;;25.65;;
3767;SDS011;1899;49.966;7.106;2023-02-11T19:35:09;36.03;;;25.07;;
3767;SDS011;1899;49.966;7.106;2023-02-11T19:37:34;27.13;;;19.53;;
3767;SDS011;1899;49.966;7.106;2023-02-11T19:40:00;35.83;;;24.03;;
3767;SDS011;1899;49.966;7.106;2023-02-11T19:42:25;36.20;;;23.43;;
3767;SDS011;1899;49.966;7.106;2023-02-11T19:44:51;32.88;;;23.23;;
3767;SDS011;1899;49.966;7.106;2023-02-11T19:47:16;29.73;;;21.60;;
3767;SDS011;1899;49.966;7.106;2023-02-11T19:49:42;36.43;;;24.10;;
3767;SDS011;1899;49.966;7.106;2023-02-11T19:52:07;31.57;;;23.00;;
3767;SDS011;1899;49.966;7.106;2023-02-11T19:54:32;33.47;;;23.40;;
3767;SDS011;1899;49.966;7.106;2023-02-11T19:56:58;36.83;;;24.75;;
3767;SDS011;1899;49.966;7.106;2023-02-11T19:59:23;35.67;;;24.08;;
3767;SDS011;1899;49.966;7.106;2023-02-11T20:01:48;40.43;;;27.03;;
3767;SDS011;1899;49.966;7.106;2023-02-11T20:04:14;44.40;;;29.37;;
3767;SDS011;1899;49.966;7.106;2023-02-11T20:06:40;46.10;;;32.50;;
3767;SDS011;1899;49.966;7.106;2023-02-11T20:09:06;47.13;;;33.00;;
3767;SDS011;1899;49.966;7.106;2023-02-11T20:11:34;55.65;;;35.92;;
3767;SDS011;1899;49.966;7.106;2023-02-11T20:13:59;50.83;;;34.45;;
3767;SDS011;1899;49.966;7.106;2023-02-11T20:16:26;54.30;;;35.17;;
3767;SDS011;1899;49.966;7.106;2023-02-11T20:18:51;55.17;;;38.22;;
3767;SDS011;1899;49.966;7.106;2023-02-11T20:21:20;55.90;;;37.57;;
3767;SDS011;1899;49.966;7.106;2023-02-11T20:23:46;56.25;;;36.05;;
3767;SDS011;1899;49.966;7.106;2023-02-11T20:26:13;58.97;;;38.08;;
3767;SDS011;1899;49.966;7.106;2023-02-11T20:28:39;54.00;;;36.58;;
3767;SDS011;1899;49.966;7.106;2023-02-11T20:31:05;51.63;;;36.13;;
3767;SDS011;1899;49.966;7.106;2023-02-11T20:33:30;49.00;;;33.93;;
3767;SDS011;1899;49.966;7.106;2023-02-11T20:36:00;53.08;;;35.25;;
3767;SDS011;1899;49.966;7.106;2023-02-11T20:38:26;46.70;;;33.03;;
3767;SDS011;1899;49.966;7.106;2023-02-11T20:40:51;41.87;;;31.07;;
3767;SDS011;1899;49.966;7.106;2023-02-11T20:43:17;49.00;;;32.57;;
3767;SDS011;1899;49.966;7.106;2023-02-11T20:45:42;49.43;;;33.40;;
3767;SDS011;1899;49.966;7.106;2023-02-11T20:48:08;46.40;;;32.20;;
3767;SDS011;1899;49.966;7.106;2023-02-11T20:50:33;44.47;;;31.37;;
3767;SDS011;1899;49.966;7.106;2023-02-11T20:52:58;44.70;;;30.00;;
3767;SDS011;1899;49.966;7.106;2023-02-11T20:55:24;48.00;;;31.10;;
3767;SDS011;1899;49.966;7.106;2023-02-11T20:57:49;48.03;;;31.73;;
